Cedar Park's Hourly Summary for Saturday, July 7, 2018
Hour Temp
(f)
RH
(%)
Solar Rad.
(MJ/m2)
Rainfall
(in)
Wind
(mph)
7/7/2018 12:00 AM 78 76 0 0 2.98
7/7/2018 1:00 AM 77 77 0 0 2.36
7/7/2018 2:00 AM 76 81 0 0 0.68
7/7/2018 3:00 AM 75 84 0 0 0.13
7/7/2018 4:00 AM 73 89 0 0 0.01
7/7/2018 5:00 AM 72 92 0 0 0.1
7/7/2018 6:00 AM 72 92 0.01 0 0.17
7/7/2018 7:00 AM 73 92 0.16 0 0.34
7/7/2018 8:00 AM 76 88 0.76 0 0.96
7/7/2018 9:00 AM 79 76 0.79 0 1.75
7/7/2018 10:00 AM 79 82 0.79 0.23 1.75
7/7/2018 11:00 AM 74 96 0.53 0.09 1.51
7/7/2018 12:00 PM 78 96 1.86 0 0.51
7/7/2018 1:00 PM 84 78 3.24 0 1.07
7/7/2018 2:00 PM 85 63 3.24 0 2.82
7/7/2018 3:00 PM 85 70 2.42 0 3.31
7/7/2018 4:00 PM 78 70 0.75 0 3.52
7/7/2018 5:00 PM 79 72 0.55 0 3.52
7/7/2018 6:00 PM 80 72 0.55 0 2.29
7/7/2018 7:00 PM 80 69 0.42 0 1.52
7/7/2018 8:00 PM 79 72 0.14 0 1.37
7/7/2018 9:00 PM 78 75 0.03 0 1.37
7/7/2018 10:00 PM 75 91 0 0 0.02
7/7/2018 11:00 PM 72 94 0 0 0
Data Summary 77 81 16.24 0.32 1.42